Zhanyi, China
Current Conditions -  °F | °C
As of 5:00 PM on Saturday 29 Nov 2014 (Local Time) from ZPPP Reporting Station
Clear Clear  
Wind Chill: 59°   Ceiling: Unl
Heat Index: 59°   Visibility: 6mi
Dew Point: 34°   Wind: 22mph
Humidity: 39%   Direction: 230°SW
Pressure: 29.97"   Gusts: NA
Location:  25.58°N, 103.83°E
Report Text: ZPPP 290900Z 23010MPS CAVOK 15/01 Q1015 NOSIG
Loading
Personal Weather Stations






























Interactive Weather Map New forecast layout! Learn more

10-Day Weather Forecast

Advertisements
Track Severe Weather on mobile